createdAt,value
2022-08-17T00:00:43.158Z,25.70
2022-08-17T00:03:34.072Z,25.60
2022-08-17T00:06:23.957Z,25.80
2022-08-17T00:09:10.109Z,25.80
2022-08-17T00:12:51.471Z,25.70
2022-08-17T00:15:13.383Z,25.70
2022-08-17T00:17:58.693Z,25.70
2022-08-17T00:20:44.433Z,25.60
2022-08-17T00:23:30.185Z,25.60
2022-08-17T00:26:16.175Z,25.60
2022-08-17T00:29:22.253Z,25.60
2022-08-17T00:33:11.902Z,25.40
2022-08-17T00:35:17.637Z,25.30
2022-08-17T00:38:05.035Z,25.30
2022-08-17T00:41:20.113Z,25.30
2022-08-17T00:44:06.721Z,25.20
2022-08-17T00:46:52.430Z,25.30
2022-08-17T00:49:37.919Z,25.30
2022-08-17T00:52:29.133Z,25.30
2022-08-17T00:55:14.851Z,25.20
2022-08-17T00:58:03.757Z,25.20
2022-08-17T01:00:50.944Z,25.10
2022-08-17T01:03:37.416Z,25.10
2022-08-17T01:06:24.286Z,25.20
2022-08-17T01:09:10.423Z,25.10
2022-08-17T01:11:55.980Z,25.20
2022-08-17T01:14:41.979Z,25.10
2022-08-17T01:17:28.602Z,25.00
2022-08-17T01:20:14.360Z,24.90
2022-08-17T01:23:01.231Z,24.70
2022-08-17T01:25:58.435Z,24.60
2022-08-17T01:28:53.643Z,24.60
2022-08-17T01:31:52.598Z,24.80
2022-08-17T01:34:42.702Z,24.80
2022-08-17T01:37:38.337Z,24.70
2022-08-17T01:40:43.205Z,24.80
2022-08-17T01:43:34.618Z,24.90
2022-08-17T01:46:27.214Z,24.70
2022-08-17T01:49:13.060Z,24.60
2022-08-17T01:52:05.586Z,24.40
2022-08-17T01:54:52.499Z,24.50
2022-08-17T01:57:38.063Z,24.40
2022-08-17T02:00:23.866Z,24.40
2022-08-17T02:03:10.570Z,24.40
2022-08-17T02:05:57.079Z,24.40
2022-08-17T02:09:01.851Z,24.40
2022-08-17T02:11:48.535Z,24.40
2022-08-17T02:14:35.926Z,24.50
2022-08-17T02:17:21.901Z,24.50
2022-08-17T02:20:09.516Z,24.50
2022-08-17T02:22:55.908Z,24.60
2022-08-17T02:25:45.818Z,24.70
2022-08-17T02:28:33.565Z,24.70
2022-08-17T02:31:19.429Z,24.80
2022-08-17T02:34:06.261Z,24.80
2022-08-17T02:36:53.434Z,24.40
2022-08-17T02:39:39.009Z,24.20
2022-08-17T02:42:31.482Z,24.00
2022-08-17T02:45:24.216Z,23.90
2022-08-17T02:48:10.606Z,23.60
2022-08-17T02:50:56.292Z,23.40
2022-08-17T02:53:42.008Z,23.30
2022-08-17T02:56:27.561Z,23.20
2022-08-17T02:59:13.016Z,23.10
2022-08-17T03:01:58.757Z,22.90
2022-08-17T03:04:44.126Z,22.80
2022-08-17T03:07:31.019Z,22.80
2022-08-17T03:10:18.561Z,22.80
2022-08-17T03:13:04.606Z,22.70
2022-08-17T03:15:50.683Z,22.70
2022-08-17T03:18:36.801Z,22.70
2022-08-17T03:21:22.609Z,22.70
2022-08-17T03:24:09.254Z,22.60
2022-08-17T03:26:54.681Z,22.50
2022-08-17T03:29:41.495Z,22.50
2022-08-17T03:32:27.055Z,22.50
2022-08-17T03:35:15.646Z,22.50
2022-08-17T03:38:04.215Z,22.40
2022-08-17T03:40:56.290Z,22.40
2022-08-17T03:43:44.955Z,22.30
2022-08-17T03:46:48.844Z,22.30
2022-08-17T03:49:52.871Z,22.20
2022-08-17T03:52:57.049Z,22.20
2022-08-17T03:56:01.284Z,22.20
2022-08-17T03:58:46.741Z,22.20
2022-08-17T04:01:32.517Z,22.20
2022-08-17T04:04:18.773Z,22.20
2022-08-17T04:07:12.013Z,22.10
2022-08-17T04:09:58.371Z,22.20
2022-08-17T04:12:51.448Z,22.20
2022-08-17T04:15:37.382Z,22.20
2022-08-17T04:18:22.925Z,22.10
2022-08-17T04:21:11.689Z,22.10
2022-08-17T04:23:58.238Z,22.10
2022-08-17T04:26:52.037Z,22.10
2022-08-17T04:29:54.837Z,22.00
2022-08-17T04:33:07.294Z,22.00
2022-08-17T04:35:56.189Z,22.00
2022-08-17T04:38:44.370Z,22.00
2022-08-17T04:41:48.319Z,21.90
2022-08-17T04:44:37.846Z,22.00
2022-08-17T04:47:24.253Z,22.00
2022-08-17T04:50:09.972Z,21.90
2022-08-17T04:52:56.044Z,21.90
2022-08-17T04:55:41.897Z,21.80
2022-08-17T04:58:27.415Z,21.80
2022-08-17T05:01:13.773Z,21.80
2022-08-17T05:04:33.159Z,21.80
2022-08-17T05:07:08.044Z,21.80
2022-08-17T05:09:53.442Z,21.90
2022-08-17T05:12:38.937Z,21.90
2022-08-17T05:15:24.447Z,21.90
2022-08-17T05:18:10.297Z,22.00
2022-08-17T05:20:57.000Z,21.90
2022-08-17T05:23:43.606Z,21.90
2022-08-17T05:26:31.702Z,22.00
2022-08-17T05:29:22.058Z,22.00
2022-08-17T05:32:37.868Z,22.00
2022-08-17T05:35:28.192Z,22.10
2022-08-17T05:38:15.386Z,22.20
2022-08-17T05:41:04.421Z,22.20
2022-08-17T05:43:55.697Z,22.20
2022-08-17T05:46:45.664Z,22.20
2022-08-17T05:49:31.594Z,22.20
2022-08-17T05:52:38.761Z,22.20
2022-08-17T05:55:33.249Z,22.20
2022-08-17T05:58:27.934Z,22.20
2022-08-17T06:01:48.131Z,22.30
2022-08-17T06:05:18.121Z,22.40
2022-08-17T06:08:22.017Z,22.40
2022-08-17T06:11:22.871Z,22.40
2022-08-17T06:14:31.505Z,22.50
2022-08-17T06:17:22.365Z,22.60
2022-08-17T06:20:14.352Z,22.60
2022-08-17T06:23:08.429Z,22.70
2022-08-17T06:26:03.787Z,22.70
2022-08-17T06:29:02.870Z,22.70
2022-08-17T06:31:48.907Z,22.80
2022-08-17T06:34:35.089Z,22.80
2022-08-17T06:37:36.578Z,22.90
2022-08-17T06:40:48.542Z,22.80
2022-08-17T06:44:00.737Z,22.90
2022-08-17T06:46:54.226Z,23.00
2022-08-17T06:49:55.446Z,23.10
2022-08-17T06:52:59.659Z,23.20
2022-08-17T06:55:53.376Z,23.20
2022-08-17T06:58:41.667Z,23.30
2022-08-17T07:01:35.809Z,23.40
2022-08-17T07:04:26.343Z,23.50
2022-08-17T07:07:31.534Z,23.60
2022-08-17T07:10:19.529Z,23.60
2022-08-17T07:13:29.437Z,23.70
2022-08-17T07:16:25.890Z,23.80
2022-08-17T07:19:11.713Z,23.90
2022-08-17T07:22:15.462Z,23.90
2022-08-17T07:25:06.740Z,24.00
2022-08-17T07:27:59.743Z,24.00
2022-08-17T07:30:51.897Z,24.10
2022-08-17T07:33:38.237Z,24.20
2022-08-17T07:36:29.985Z,24.20
2022-08-17T07:39:27.690Z,24.30
2022-08-17T07:42:13.308Z,24.40
2022-08-17T07:45:19.094Z,24.50
2022-08-17T07:48:19.696Z,24.60
2022-08-17T07:51:25.189Z,24.70
2022-08-17T07:54:18.518Z,24.80
2022-08-17T07:57:29.474Z,24.80
2022-08-17T08:00:26.714Z,24.90
2022-08-17T08:03:26.209Z,25.00
2022-08-17T08:06:26.403Z,25.00
2022-08-17T08:09:29.311Z,25.10
2022-08-17T08:12:21.331Z,25.20
2022-08-17T08:15:18.708Z,25.30
2022-08-17T08:18:53.455Z,25.30
2022-08-17T08:21:47.660Z,25.40
2022-08-17T08:24:59.134Z,25.50
2022-08-17T08:28:06.378Z,25.50
2022-08-17T08:31:16.895Z,25.60
2022-08-17T08:35:00.799Z,25.60
2022-08-17T08:38:07.620Z,25.80
2022-08-17T08:41:18.684Z,25.80
2022-08-17T08:45:01.340Z,25.90
2022-08-17T08:47:49.165Z,26.00
2022-08-17T08:51:13.543Z,26.10
2022-08-17T08:54:26.811Z,26.10
2022-08-17T08:57:24.410Z,26.20
2022-08-17T09:00:15.681Z,26.40
2022-08-17T09:03:13.230Z,26.50
2022-08-17T09:06:06.139Z,26.70
2022-08-17T09:09:41.890Z,26.80
2022-08-17T09:12:41.796Z,26.90
2022-08-17T09:15:33.525Z,27.00
2022-08-17T09:18:59.842Z,27.10
2022-08-17T09:21:48.000Z,27.20
2022-08-17T09:24:43.953Z,27.30
2022-08-17T09:27:56.563Z,27.40
2022-08-17T09:30:50.638Z,27.50
2022-08-17T09:33:43.231Z,27.60
2022-08-17T09:36:34.493Z,27.70
2022-08-17T09:39:48.199Z,27.70
2022-08-17T09:42:49.899Z,27.80
2022-08-17T09:45:51.139Z,27.90
2022-08-17T09:48:50.286Z,27.90
2022-08-17T09:51:42.257Z,28.00
2022-08-17T09:54:39.039Z,28.10
2022-08-17T09:57:52.349Z,28.10
2022-08-17T10:00:45.995Z,28.10
2022-08-17T10:04:09.053Z,28.20
2022-08-17T10:07:19.682Z,28.20
2022-08-17T10:10:25.687Z,28.20
2022-08-17T10:13:14.687Z,28.20
2022-08-17T10:16:31.153Z,28.30
2022-08-17T10:19:23.287Z,28.30
2022-08-17T10:22:38.712Z,28.30
2022-08-17T10:26:00.286Z,28.30
2022-08-17T10:28:55.925Z,28.40
2022-08-17T10:31:50.347Z,28.40
2022-08-17T10:34:50.977Z,28.50
2022-08-17T10:38:03.066Z,28.50
2022-08-17T10:40:53.198Z,28.50
2022-08-17T10:44:37.298Z,28.60
2022-08-17T10:47:15.425Z,28.60
2022-08-17T10:50:50.450Z,28.60
2022-08-17T10:53:35.869Z,28.60
2022-08-17T10:56:39.410Z,28.70
2022-08-17T10:59:36.957Z,28.70
2022-08-17T11:02:39.547Z,26.40
2022-08-17T11:05:28.973Z,28.70
2022-08-17T11:08:52.440Z,28.70
2022-08-17T11:12:31.572Z,28.70
2022-08-17T11:15:26.211Z,28.70
2022-08-17T11:18:37.076Z,28.70
2022-08-17T11:21:39.848Z,28.70
2022-08-17T11:24:39.898Z,28.70
2022-08-17T11:27:32.413Z,28.70
2022-08-17T11:30:43.572Z,28.70
2022-08-17T11:33:29.740Z,28.70
2022-08-17T11:36:37.561Z,28.60
2022-08-17T11:39:44.955Z,28.60
2022-08-17T11:42:58.847Z,28.70
2022-08-17T11:45:54.525Z,28.70
2022-08-17T11:49:01.520Z,28.70
2022-08-17T11:52:00.337Z,28.70
2022-08-17T11:54:48.476Z,28.70
2022-08-17T11:57:34.218Z,28.70
2022-08-17T12:00:57.813Z,28.80
2022-08-17T12:03:54.063Z,28.80
2022-08-17T12:06:52.193Z,28.90
2022-08-17T12:09:46.057Z,28.90
2022-08-17T12:12:35.959Z,29.00
2022-08-17T12:15:35.061Z,29.10
2022-08-17T12:18:32.189Z,29.10
2022-08-17T12:21:40.337Z,29.10
2022-08-17T12:24:51.589Z,29.10
2022-08-17T12:28:05.484Z,29.20
2022-08-17T12:30:52.111Z,29.20
2022-08-17T12:33:43.875Z,29.20
2022-08-17T12:36:30.530Z,29.20
2022-08-17T12:39:26.056Z,29.10
2022-08-17T12:42:22.981Z,29.10
2022-08-17T12:45:29.423Z,29.10
2022-08-17T12:48:24.031Z,29.00
2022-08-17T12:51:13.058Z,28.90
2022-08-17T12:53:58.869Z,28.90
2022-08-17T12:56:46.224Z,28.90
2022-08-17T12:59:33.517Z,28.90
2022-08-17T13:02:46.850Z,28.90
2022-08-17T13:05:36.190Z,28.90
2022-08-17T13:08:29.365Z,28.90
2022-08-17T13:11:16.170Z,28.80
2022-08-17T13:14:10.080Z,28.80
2022-08-17T13:17:00.882Z,28.80
2022-08-17T13:19:51.430Z,28.80
2022-08-17T13:22:37.343Z,28.80
2022-08-17T13:25:24.061Z,28.80
2022-08-17T13:28:18.624Z,28.80
2022-08-17T13:31:28.330Z,28.80
2022-08-17T13:34:26.887Z,28.80
2022-08-17T13:37:29.489Z,28.90
2022-08-17T13:40:14.896Z,28.90
2022-08-17T13:43:03.319Z,29.00
2022-08-17T13:45:52.073Z,29.00
2022-08-17T13:48:37.997Z,29.10
2022-08-17T13:51:44.916Z,29.10
2022-08-17T13:54:34.403Z,29.10
2022-08-17T13:57:25.776Z,29.10
2022-08-17T14:00:33.184Z,29.00
2022-08-17T14:03:20.530Z,29.10
2022-08-17T14:06:06.377Z,29.10
2022-08-17T14:08:55.733Z,29.10
2022-08-17T14:11:43.093Z,29.10
2022-08-17T14:14:29.372Z,29.10
2022-08-17T14:17:15.249Z,29.10
2022-08-17T14:20:01.133Z,29.10
2022-08-17T14:22:50.792Z,29.10
2022-08-17T14:25:36.338Z,29.00
2022-08-17T14:28:22.138Z,29.00
2022-08-17T14:31:08.447Z,29.00
2022-08-17T14:33:54.194Z,29.00
2022-08-17T14:36:48.174Z,29.00
2022-08-17T14:39:34.291Z,29.00
2022-08-17T14:42:20.542Z,29.10
2022-08-17T14:45:31.455Z,29.20
2022-08-17T14:48:13.942Z,29.30
2022-08-17T14:50:59.423Z,29.50
2022-08-17T14:53:45.871Z,29.60
2022-08-17T14:56:31.841Z,29.60
2022-08-17T14:59:23.913Z,29.50
2022-08-17T15:02:10.816Z,29.40
2022-08-17T15:05:02.192Z,29.30
2022-08-17T15:07:47.981Z,29.30
2022-08-17T15:10:34.212Z,29.30
2022-08-17T15:13:25.787Z,29.30
2022-08-17T15:16:13.752Z,29.30
2022-08-17T15:18:59.894Z,29.30
2022-08-17T15:21:46.994Z,29.30
2022-08-17T15:24:33.652Z,29.40
2022-08-17T15:27:24.254Z,29.50
2022-08-17T15:30:18.591Z,29.70
2022-08-17T15:33:04.395Z,30.10
2022-08-17T15:35:52.093Z,30.40
2022-08-17T15:38:40.619Z,30.60
2022-08-17T15:41:30.099Z,30.70
2022-08-17T15:44:15.809Z,30.60
2022-08-17T15:47:01.977Z,30.50
2022-08-17T15:49:47.898Z,30.40
2022-08-17T15:52:40.381Z,30.30
2022-08-17T15:55:28.019Z,30.20
2022-08-17T15:58:14.048Z,30.10
2022-08-17T16:01:18.195Z,30.00
2022-08-17T16:04:06.944Z,30.30
2022-08-17T16:06:53.057Z,30.60
2022-08-17T16:09:38.708Z,31.00
2022-08-17T16:12:24.537Z,31.20
2022-08-17T16:15:11.502Z,31.20
2022-08-17T16:17:57.726Z,31.10
2022-08-17T16:20:43.975Z,30.90
2022-08-17T16:23:29.394Z,30.80
2022-08-17T16:26:16.081Z,30.50
2022-08-17T16:29:04.792Z,30.40
2022-08-17T16:31:51.284Z,30.30
2022-08-17T16:34:37.140Z,30.20
2022-08-17T16:37:22.931Z,30.10
2022-08-17T16:40:11.640Z,30.10
2022-08-17T16:42:57.756Z,30.00
2022-08-17T16:45:44.871Z,29.90
2022-08-17T16:48:33.132Z,29.80
2022-08-17T16:51:19.049Z,29.80
2022-08-17T16:54:06.297Z,29.70
2022-08-17T16:56:53.694Z,29.70
2022-08-17T16:59:43.733Z,29.70
2022-08-17T17:02:37.096Z,29.70
2022-08-17T17:05:48.462Z,29.70
2022-08-17T17:08:48.485Z,29.50
2022-08-17T17:11:48.037Z,29.60
2022-08-17T17:14:43.231Z,29.50
2022-08-17T17:17:31.193Z,29.50
2022-08-17T17:20:22.321Z,29.50
2022-08-17T17:23:23.664Z,29.40
2022-08-17T17:26:25.288Z,29.40
2022-08-17T17:29:47.671Z,29.40
2022-08-17T17:33:07.794Z,29.40
2022-08-17T17:35:59.167Z,29.40
2022-08-17T17:38:49.833Z,29.30
2022-08-17T17:41:51.945Z,29.40
2022-08-17T17:45:09.578Z,29.30
2022-08-17T17:47:55.017Z,29.30
2022-08-17T17:51:07.150Z,29.30
2022-08-17T17:54:07.162Z,29.30
2022-08-17T17:57:26.550Z,29.30
2022-08-17T18:00:20.746Z,29.30
2022-08-17T18:03:29.394Z,29.30
2022-08-17T18:06:41.344Z,29.20
2022-08-17T18:09:39.514Z,29.30
2022-08-17T18:12:49.769Z,29.30
2022-08-17T18:16:01.890Z,29.30
2022-08-17T18:18:50.037Z,29.20
2022-08-17T18:21:38.453Z,29.20
2022-08-17T18:24:36.025Z,29.10
2022-08-17T18:27:32.311Z,29.10
2022-08-17T18:30:17.987Z,29.10
2022-08-17T18:33:26.333Z,29.00
2022-08-17T18:36:13.515Z,28.80
2022-08-17T18:39:26.637Z,28.70
2022-08-17T18:42:27.471Z,28.60
2022-08-17T18:45:13.819Z,28.40
2022-08-17T18:47:59.691Z,28.30
2022-08-17T18:50:45.473Z,28.20
2022-08-17T18:53:37.030Z,28.00
2022-08-17T18:56:27.125Z,27.90
2022-08-17T18:59:23.107Z,27.80
2022-08-17T19:02:20.700Z,27.70
2022-08-17T19:05:25.397Z,27.70
2022-08-17T19:08:21.490Z,27.60
2022-08-17T19:11:19.224Z,27.60
2022-08-17T19:14:12.113Z,27.50
2022-08-17T19:17:04.838Z,27.40
2022-08-17T19:20:05.081Z,27.40
2022-08-17T19:23:25.253Z,27.40
2022-08-17T19:26:54.671Z,27.40
2022-08-17T19:29:41.158Z,27.40
2022-08-17T19:32:31.368Z,27.40
2022-08-17T19:35:20.208Z,27.40
2022-08-17T19:38:14.555Z,27.30
2022-08-17T19:41:09.237Z,27.30
2022-08-17T19:44:12.073Z,27.30
2022-08-17T19:47:53.836Z,27.30
2022-08-17T19:50:54.841Z,27.40
2022-08-17T19:54:11.225Z,27.40
2022-08-17T19:57:36.666Z,27.40
2022-08-17T20:00:25.589Z,27.30
2022-08-17T20:03:17.097Z,27.20
2022-08-17T20:06:13.131Z,27.10
2022-08-17T20:09:02.419Z,27.00
2022-08-17T20:11:56.381Z,27.00
2022-08-17T20:14:53.663Z,27.00
2022-08-17T20:17:45.922Z,26.90
2022-08-17T20:21:01.326Z,26.80
2022-08-17T20:24:34.825Z,26.80
2022-08-17T20:27:31.514Z,26.70
2022-08-17T20:30:24.404Z,26.70
2022-08-17T20:33:28.748Z,26.70
2022-08-17T20:36:19.278Z,26.60
2022-08-17T20:39:04.911Z,26.70
2022-08-17T20:42:27.901Z,26.60
2022-08-17T20:45:23.419Z,26.50
2022-08-17T20:48:37.027Z,26.50
2022-08-17T20:51:28.263Z,26.50
2022-08-17T20:54:16.875Z,26.50
2022-08-17T20:57:03.215Z,26.40
2022-08-17T21:00:03.423Z,26.40
2022-08-17T21:02:50.917Z,26.30
2022-08-17T21:05:59.793Z,26.30
2022-08-17T21:08:53.898Z,26.20
2022-08-17T21:11:57.303Z,26.30
2022-08-17T21:14:58.087Z,26.20
2022-08-17T21:17:50.295Z,26.20
2022-08-17T21:20:59.678Z,26.10
2022-08-17T21:24:19.374Z,26.10
2022-08-17T21:27:38.841Z,26.00
2022-08-17T21:30:47.563Z,26.00
2022-08-17T21:33:38.443Z,26.00
2022-08-17T21:36:25.920Z,26.10
2022-08-17T21:39:21.430Z,26.00
2022-08-17T21:42:12.759Z,26.00
2022-08-17T21:45:17.675Z,25.90
2022-08-17T21:48:24.271Z,25.80
2022-08-17T21:51:17.607Z,25.70
2022-08-17T21:54:35.501Z,25.50
2022-08-17T21:57:27.670Z,25.50
2022-08-17T22:00:24.071Z,25.30
2022-08-17T22:03:23.518Z,25.30
2022-08-17T22:06:24.663Z,25.20
2022-08-17T22:09:10.433Z,25.30
2022-08-17T22:11:58.938Z,25.30
2022-08-17T22:14:56.474Z,25.40
2022-08-17T22:17:46.554Z,25.50
2022-08-17T22:20:32.644Z,25.50
2022-08-17T22:24:01.114Z,25.50
2022-08-17T22:27:05.895Z,25.50
2022-08-17T22:30:00.649Z,25.40
2022-08-17T22:32:49.350Z,25.40
2022-08-17T22:35:42.061Z,25.50
2022-08-17T22:38:30.015Z,25.50
2022-08-17T22:41:42.943Z,25.50
2022-08-17T22:44:44.206Z,25.50
2022-08-17T22:47:39.441Z,25.50
2022-08-17T22:50:28.303Z,25.40
2022-08-17T22:53:36.574Z,25.30
2022-08-17T22:56:43.456Z,25.20
2022-08-17T22:59:39.268Z,25.10
2022-08-17T23:02:28.030Z,25.10
2022-08-17T23:05:13.791Z,25.10
2022-08-17T23:07:59.169Z,25.10
2022-08-17T23:10:46.596Z,25.10
2022-08-17T23:13:33.436Z,25.10
2022-08-17T23:16:21.113Z,25.10
2022-08-17T23:19:08.458Z,25.20
2022-08-17T23:21:56.314Z,25.00
2022-08-17T23:24:48.870Z,24.80
2022-08-17T23:27:34.538Z,24.70
2022-08-17T23:30:20.131Z,24.60
2022-08-17T23:33:08.390Z,24.50
2022-08-17T23:35:54.129Z,24.40
2022-08-17T23:38:40.229Z,24.20
2022-08-17T23:41:31.625Z,24.20
2022-08-17T23:44:18.227Z,24.10
2022-08-17T23:47:05.705Z,24.10
2022-08-17T23:49:54.124Z,24.00
2022-08-17T23:52:43.451Z,23.90
2022-08-17T23:55:34.478Z,24.00
2022-08-17T23:58:20.059Z,23.90
